sensor_id;sensor_type;location;lat;lon;timestamp;pressure;altitude;pressure_sealevel;temperature;humidity
35435;BME280;21556;55.782;37.528;2023-04-28T00:01:15;99144.25;;;18.72;100.00
35435;BME280;21556;55.782;37.528;2023-04-28T00:03:42;99145.63;;;18.88;100.00
35435;BME280;21556;55.782;37.528;2023-04-28T00:06:11;99149.16;;;18.89;100.00
35435;BME280;21556;55.782;37.528;2023-04-28T00:08:39;99149.84;;;18.60;100.00
35435;BME280;21556;55.782;37.528;2023-04-28T00:11:10;99149.00;;;18.59;100.00
35435;BME280;21556;55.782;37.528;2023-04-28T00:13:46;99142.78;;;18.59;100.00
35435;BME280;21556;55.782;37.528;2023-04-28T00:16:16;99145.63;;;18.14;100.00
35435;BME280;21556;55.782;37.528;2023-04-28T00:18:43;99148.00;;;18.26;100.00
35435;BME280;21556;55.782;37.528;2023-04-28T00:21:11;99149.22;;;18.11;100.00
35435;BME280;21556;55.782;37.528;2023-04-28T00:23:44;99135.13;;;18.46;100.00
35435;BME280;21556;55.782;37.528;2023-04-28T00:26:13;99137.97;;;18.39;100.00
35435;BME280;21556;55.782;37.528;2023-04-28T00:29:22;99135.91;;;18.50;100.00
35435;BME280;21556;55.782;37.528;2023-04-28T00:31:47;99138.00;;;18.74;100.00
35435;BME280;21556;55.782;37.528;2023-04-28T00:34:13;99128.28;;;18.36;100.00
35435;BME280;21556;55.782;37.528;2023-04-28T00:36:39;99129.94;;;18.40;100.00
35435;BME280;21556;55.782;37.528;2023-04-28T00:39:07;99126.84;;;18.59;100.00
35435;BME280;21556;55.782;37.528;2023-04-28T00:41:33;99128.16;;;18.41;100.00
35435;BME280;21556;55.782;37.528;2023-04-28T00:44:01;99123.53;;;18.12;100.00
35435;BME280;21556;55.782;37.528;2023-04-28T00:46:32;99122.66;;;18.13;100.00
35435;BME280;21556;55.782;37.528;2023-04-28T00:48:59;99123.94;;;17.95;100.00
35435;BME280;21556;55.782;37.528;2023-04-28T00:51:26;99124.00;;;18.31;100.00
35435;BME280;21556;55.782;37.528;2023-04-28T00:54:01;99126.16;;;18.50;100.00
35435;BME280;21556;55.782;37.528;2023-04-28T00:56:32;99114.31;;;18.28;100.00
35435;BME280;21556;55.782;37.528;2023-04-28T00:59:04;99119.00;;;18.17;100.00
35435;BME280;21556;55.782;37.528;2023-04-28T01:01:34;99120.47;;;18.30;100.00
35435;BME280;21556;55.782;37.528;2023-04-28T01:04:00;99118.09;;;18.18;100.00
35435;BME280;21556;55.782;37.528;2023-04-28T01:06:27;99118.34;;;18.44;100.00
35435;BME280;21556;55.782;37.528;2023-04-28T01:08:56;99119.19;;;17.69;100.00
35435;BME280;21556;55.782;37.528;2023-04-28T01:11:22;99115.38;;;17.82;100.00
35435;BME280;21556;55.782;37.528;2023-04-28T01:14:09;99122.28;;;17.91;100.00
35435;BME280;21556;55.782;37.528;2023-04-28T01:16:39;99131.59;;;17.67;100.00
35435;BME280;21556;55.782;37.528;2023-04-28T01:19:18;99124.09;;;18.26;100.00
35435;BME280;21556;55.782;37.528;2023-04-28T01:21:49;99126.03;;;18.19;100.00
35435;BME280;21556;55.782;37.528;2023-04-28T01:24:19;99127.47;;;18.33;100.00
35435;BME280;21556;55.782;37.528;2023-04-28T01:26:46;99124.88;;;18.31;100.00
35435;BME280;21556;55.782;37.528;2023-04-28T01:29:12;99123.28;;;18.22;100.00
35435;BME280;21556;55.782;37.528;2023-04-28T01:31:41;99125.50;;;18.03;100.00
35435;BME280;21556;55.782;37.528;2023-04-28T01:34:06;99133.25;;;17.72;100.00
35435;BME280;21556;55.782;37.528;2023-04-28T01:36:32;99136.84;;;18.10;100.00
35435;BME280;21556;55.782;37.528;2023-04-28T01:39:03;99135.94;;;18.13;100.00
35435;BME280;21556;55.782;37.528;2023-04-28T01:41:29;99127.00;;;17.75;100.00
35435;BME280;21556;55.782;37.528;2023-04-28T01:43:59;99125.97;;;17.82;100.00
35435;BME280;21556;55.782;37.528;2023-04-28T01:46:26;99135.59;;;17.88;100.00
35435;BME280;21556;55.782;37.528;2023-04-28T01:48:53;99135.72;;;17.83;100.00
35435;BME280;21556;55.782;37.528;2023-04-28T01:51:19;99144.84;;;17.23;100.00
35435;BME280;21556;55.782;37.528;2023-04-28T01:53:45;99140.56;;;17.61;100.00
35435;BME280;21556;55.782;37.528;2023-04-28T01:56:12;99134.25;;;17.23;100.00
35435;BME280;21556;55.782;37.528;2023-04-28T01:58:38;99132.34;;;17.72;100.00
35435;BME280;21556;55.782;37.528;2023-04-28T02:01:05;99129.28;;;17.93;100.00
35435;BME280;21556;55.782;37.528;2023-04-28T02:03:33;99128.13;;;17.65;100.00
35435;BME280;21556;55.782;37.528;2023-04-28T02:06:02;99123.38;;;17.80;100.00
35435;BME280;21556;55.782;37.528;2023-04-28T02:08:33;99122.41;;;17.41;100.00
35435;BME280;21556;55.782;37.528;2023-04-28T02:10:59;99123.28;;;17.42;100.00
35435;BME280;21556;55.782;37.528;2023-04-28T02:13:26;99120.88;;;17.73;100.00
35435;BME280;21556;55.782;37.528;2023-04-28T02:15:54;99117.81;;;17.49;100.00
35435;BME280;21556;55.782;37.528;2023-04-28T02:18:22;99119.53;;;17.52;100.00
35435;BME280;21556;55.782;37.528;2023-04-28T02:20:49;99112.78;;;17.36;100.00
35435;BME280;21556;55.782;37.528;2023-04-28T02:23:16;99114.97;;;17.59;100.00
35435;BME280;21556;55.782;37.528;2023-04-28T02:25:43;99125.75;;;17.51;100.00
35435;BME280;21556;55.782;37.528;2023-04-28T02:28:15;99126.50;;;17.56;100.00
35435;BME280;21556;55.782;37.528;2023-04-28T02:30:42;99115.84;;;17.59;100.00
35435;BME280;21556;55.782;37.528;2023-04-28T02:33:09;99109.31;;;17.33;100.00
35435;BME280;21556;55.782;37.528;2023-04-28T02:35:37;99118.53;;;17.14;100.00
35435;BME280;21556;55.782;37.528;2023-04-28T02:38:02;99125.88;;;16.98;100.00
35435;BME280;21556;55.782;37.528;2023-04-28T02:40:28;99130.28;;;17.44;100.00
35435;BME280;21556;55.782;37.528;2023-04-28T02:42:55;99128.00;;;17.26;100.00
35435;BME280;21556;55.782;37.528;2023-04-28T02:45:21;99133.66;;;17.07;100.00
35435;BME280;21556;55.782;37.528;2023-04-28T02:47:47;99144.72;;;16.83;100.00
35435;BME280;21556;55.782;37.528;2023-04-28T02:50:13;99139.03;;;17.04;100.00
35435;BME280;21556;55.782;37.528;2023-04-28T02:52:42;99138.06;;;17.08;100.00
35435;BME280;21556;55.782;37.528;2023-04-28T02:55:09;99148.41;;;17.22;100.00
35435;BME280;21556;55.782;37.528;2023-04-28T02:57:42;99141.41;;;17.18;100.00
35435;BME280;21556;55.782;37.528;2023-04-28T03:00:09;99147.88;;;17.03;100.00
35435;BME280;21556;55.782;37.528;2023-04-28T03:02:44;99148.31;;;17.27;100.00
35435;BME280;21556;55.782;37.528;2023-04-28T03:05:10;99154.41;;;17.32;100.00
35435;BME280;21556;55.782;37.528;2023-04-28T03:07:40;99152.16;;;17.11;100.00
35435;BME280;21556;55.782;37.528;2023-04-28T03:10:06;99142.75;;;17.39;100.00
35435;BME280;21556;55.782;37.528;2023-04-28T03:12:35;99146.06;;;17.52;100.00
35435;BME280;21556;55.782;37.528;2023-04-28T03:15:02;99153.34;;;16.94;100.00
35435;BME280;21556;55.782;37.528;2023-04-28T03:17:30;99147.84;;;17.05;100.00
35435;BME280;21556;55.782;37.528;2023-04-28T03:19:56;99142.69;;;17.42;100.00
35435;BME280;21556;55.782;37.528;2023-04-28T03:22:23;99146.38;;;17.37;100.00
35435;BME280;21556;55.782;37.528;2023-04-28T03:24:49;99149.16;;;17.29;100.00
35435;BME280;21556;55.782;37.528;2023-04-28T03:27:15;99145.28;;;17.45;100.00
35435;BME280;21556;55.782;37.528;2023-04-28T03:29:41;99150.59;;;17.47;100.00
35435;BME280;21556;55.782;37.528;2023-04-28T03:32:07;99151.63;;;17.38;100.00
35435;BME280;21556;55.782;37.528;2023-04-28T03:34:32;99171.19;;;17.31;100.00
35435;BME280;21556;55.782;37.528;2023-04-28T03:36:58;99177.47;;;17.27;100.00
35435;BME280;21556;55.782;37.528;2023-04-28T03:39:28;99172.56;;;17.52;100.00
35435;BME280;21556;55.782;37.528;2023-04-28T03:41:54;99162.19;;;17.41;100.00
35435;BME280;21556;55.782;37.528;2023-04-28T03:44:40;99170.47;;;17.23;100.00
35435;BME280;21556;55.782;37.528;2023-04-28T03:47:08;99170.34;;;17.30;100.00
35435;BME280;21556;55.782;37.528;2023-04-28T03:49:40;99174.34;;;17.51;100.00
35435;BME280;21556;55.782;37.528;2023-04-28T03:52:11;99170.34;;;17.30;100.00
35435;BME280;21556;55.782;37.528;2023-04-28T03:54:39;99181.09;;;17.23;100.00
35435;BME280;21556;55.782;37.528;2023-04-28T03:57:08;99177.38;;;17.31;100.00
35435;BME280;21556;55.782;37.528;2023-04-28T03:59:37;99180.69;;;17.43;100.00
35435;BME280;21556;55.782;37.528;2023-04-28T04:02:04;99178.09;;;17.41;100.00
35435;BME280;21556;55.782;37.528;2023-04-28T04:04:32;99191.25;;;16.98;100.00
35435;BME280;21556;55.782;37.528;2023-04-28T04:06:59;99180.31;;;17.16;100.00
35435;BME280;21556;55.782;37.528;2023-04-28T04:09:25;99174.09;;;17.17;100.00
35435;BME280;21556;55.782;37.528;2023-04-28T04:11:51;99176.09;;;17.06;100.00
35435;BME280;21556;55.782;37.528;2023-04-28T04:14:18;99174.38;;;17.50;100.00
35435;BME280;21556;55.782;37.528;2023-04-28T04:16:46;99183.13;;;17.08;100.00
35435;BME280;21556;55.782;37.528;2023-04-28T04:19:21;99174.34;;;17.51;100.00
35435;BME280;21556;55.782;37.528;2023-04-28T04:21:53;99179.75;;;17.47;100.00
35435;BME280;21556;55.782;37.528;2023-04-28T04:24:19;99183.84;;;17.63;100.00
35435;BME280;21556;55.782;37.528;2023-04-28T04:26:49;99192.13;;;17.46;100.00
35435;BME280;21556;55.782;37.528;2023-04-28T04:29:38;99189.19;;;17.62;100.00
35435;BME280;21556;55.782;37.528;2023-04-28T04:32:10;99182.53;;;17.41;100.00
35435;BME280;21556;55.782;37.528;2023-04-28T04:34:40;99182.41;;;17.47;100.00
35435;BME280;21556;55.782;37.528;2023-04-28T04:37:08;99192.50;;;17.73;100.00
35435;BME280;21556;55.782;37.528;2023-04-28T04:39:42;99190.81;;;17.67;100.00
35435;BME280;21556;55.782;37.528;2023-04-28T04:42:08;99194.66;;;17.52;100.00
35435;BME280;21556;55.782;37.528;2023-04-28T04:44:43;99191.25;;;18.68;100.00
35435;BME280;21556;55.782;37.528;2023-04-28T04:47:21;99188.09;;;18.90;100.00
35435;BME280;21556;55.782;37.528;2023-04-28T04:49:50;99200.53;;;18.50;100.00
35435;BME280;21556;55.782;37.528;2023-04-28T04:52:17;99198.66;;;18.56;100.00
35435;BME280;21556;55.782;37.528;2023-04-28T04:54:49;99206.03;;;18.80;100.00
35435;BME280;21556;55.782;37.528;2023-04-28T04:57:15;99202.78;;;19.05;100.00
35435;BME280;21556;55.782;37.528;2023-04-28T05:00:06;99208.16;;;19.02;100.00
35435;BME280;21556;55.782;37.528;2023-04-28T05:02:45;99202.81;;;19.03;100.00
35435;BME280;21556;55.782;37.528;2023-04-28T05:05:14;99210.41;;;19.17;100.00
35435;BME280;21556;55.782;37.528;2023-04-28T05:07:42;99210.91;;;18.98;100.00
35435;BME280;21556;55.782;37.528;2023-04-28T05:10:12;99208.84;;;18.35;100.00
35435;BME280;21556;55.782;37.528;2023-04-28T05:12:44;99217.75;;;18.34;100.00
35435;BME280;21556;55.782;37.528;2023-04-28T05:15:10;99222.25;;;18.29;100.00
35435;BME280;21556;55.782;37.528;2023-04-28T05:17:42;99223.31;;;18.22;100.00
35435;BME280;21556;55.782;37.528;2023-04-28T05:20:09;99225.31;;;18.11;100.00
35435;BME280;21556;55.782;37.528;2023-04-28T05:22:40;99228.78;;;18.16;100.00
35435;BME280;21556;55.782;37.528;2023-04-28T05:25:11;99227.22;;;18.46;100.00
35435;BME280;21556;55.782;37.528;2023-04-28T05:27:38;99221.03;;;18.44;100.00
35435;BME280;21556;55.782;37.528;2023-04-28T05:30:09;99231.09;;;17.89;100.00
35435;BME280;21556;55.782;37.528;2023-04-28T05:32:36;99231.44;;;18.16;100.00
35435;BME280;21556;55.782;37.528;2023-04-28T05:35:03;99234.94;;;18.16;100.00
35435;BME280;21556;55.782;37.528;2023-04-28T05:37:33;99235.19;;;18.06;100.00
35435;BME280;21556;55.782;37.528;2023-04-28T05:40:00;99231.09;;;18.29;100.00
35435;BME280;21556;55.782;37.528;2023-04-28T05:42:34;99232.66;;;18.40;100.00
35435;BME280;21556;55.782;37.528;2023-04-28T05:45:01;99226.53;;;17.96;100.00
35435;BME280;21556;55.782;37.528;2023-04-28T05:47:30;99227.63;;;18.26;100.00
35435;BME280;21556;55.782;37.528;2023-04-28T05:50:01;99222.50;;;18.20;100.00
35435;BME280;21556;55.782;37.528;2023-04-28T05:52:29;99232.53;;;18.04;100.00
35435;BME280;21556;55.782;37.528;2023-04-28T05:55:01;99227.88;;;18.15;100.00
35435;BME280;21556;55.782;37.528;2023-04-28T05:57:29;99228.97;;;18.07;100.00
35435;BME280;21556;55.782;37.528;2023-04-28T05:59:59;99235.81;;;18.17;100.00
35435;BME280;21556;55.782;37.528;2023-04-28T06:02:27;99231.34;;;18.19;100.00
35435;BME280;21556;55.782;37.528;2023-04-28T06:04:55;99235.66;;;18.24;100.00
35435;BME280;21556;55.782;37.528;2023-04-28T06:07:23;99229.50;;;18.22;100.00
35435;BME280;21556;55.782;37.528;2023-04-28T06:09:49;99242.69;;;18.27;100.00
35435;BME280;21556;55.782;37.528;2023-04-28T06:12:16;99234.31;;;18.05;100.00
35435;BME280;21556;55.782;37.528;2023-04-28T06:14:48;99229.31;;;18.32;100.00
35435;BME280;21556;55.782;37.528;2023-04-28T06:17:23;99233.16;;;17.72;100.00
35435;BME280;21556;55.782;37.528;2023-04-28T06:19:55;99227.81;;;17.75;100.00
35435;BME280;21556;55.782;37.528;2023-04-28T06:22:31;99224.25;;;17.77;100.00
35435;BME280;21556;55.782;37.528;2023-04-28T06:24:57;99228.72;;;17.74;100.00
35435;BME280;21556;55.782;37.528;2023-04-28T06:27:35;99223.47;;;18.16;100.00
35435;BME280;21556;55.782;37.528;2023-04-28T06:30:01;99222.19;;;18.32;100.00
35435;BME280;21556;55.782;37.528;2023-04-28T06:32:29;99227.38;;;18.77;100.00
35435;BME280;21556;55.782;37.528;2023-04-28T06:34:57;99226.50;;;18.78;100.00
35435;BME280;21556;55.782;37.528;2023-04-28T06:37:23;99225.03;;;18.63;100.00
35435;BME280;21556;55.782;37.528;2023-04-28T06:39:49;99220.31;;;18.78;100.00
35435;BME280;21556;55.782;37.528;2023-04-28T06:42:19;99226.63;;;18.72;100.00
35435;BME280;21556;55.782;37.528;2023-04-28T06:44:57;99233.91;;;18.62;100.00
35435;BME280;21556;55.782;37.528;2023-04-28T06:47:26;99221.97;;;18.43;100.00
35435;BME280;21556;55.782;37.528;2023-04-28T06:49:55;99219.69;;;18.26;100.00
35435;BME280;21556;55.782;37.528;2023-04-28T06:52:23;99222.63;;;18.52;100.00
35435;BME280;21556;55.782;37.528;2023-04-28T06:54:49;99219.13;;;18.89;100.00
35435;BME280;21556;55.782;37.528;2023-04-28T06:57:16;99216.69;;;18.80;100.00
35435;BME280;21556;55.782;37.528;2023-04-28T06:59:47;99212.94;;;19.23;100.00
35435;BME280;21556;55.782;37.528;2023-04-28T07:02:16;99212.41;;;19.43;100.00
35435;BME280;21556;55.782;37.528;2023-04-28T07:04:50;99211.13;;;19.23;100.00
35435;BME280;21556;55.782;37.528;2023-04-28T07:07:20;99212.28;;;19.47;100.00
35435;BME280;21556;55.782;37.528;2023-04-28T07:09:49;99215.66;;;19.54;100.00
35435;BME280;21556;55.782;37.528;2023-04-28T07:12:20;99217.19;;;19.63;100.00
35435;BME280;21556;55.782;37.528;2023-04-28T07:14:51;99220.97;;;19.21;100.00
35435;BME280;21556;55.782;37.528;2023-04-28T07:17:20;99223.44;;;19.28;100.00
35435;BME280;21556;55.782;37.528;2023-04-28T07:19:52;99220.03;;;18.88;100.00
35435;BME280;21556;55.782;37.528;2023-04-28T07:22:34;99214.78;;;19.21;100.00
35435;BME280;21556;55.782;37.528;2023-04-28T07:25:28;99222.06;;;19.13;100.00
35435;BME280;21556;55.782;37.528;2023-04-28T07:28:20;99224.50;;;18.49;100.00
35435;BME280;21556;55.782;37.528;2023-04-28T07:31:00;99230.38;;;18.62;100.00
35435;BME280;21556;55.782;37.528;2023-04-28T07:34:16;99221.66;;;18.55;100.00
35435;BME280;21556;55.782;37.528;2023-04-28T07:37:04;99232.84;;;18.71;100.00
35435;BME280;21556;55.782;37.528;2023-04-28T07:40:01;99226.97;;;18.55;100.00
35435;BME280;21556;55.782;37.528;2023-04-28T07:42:43;99228.50;;;18.67;100.00
35435;BME280;21556;55.782;37.528;2023-04-28T07:45:13;99230.44;;;18.20;100.00
35435;BME280;21556;55.782;37.528;2023-04-28T07:47:44;99231.56;;;18.08;100.00
35435;BME280;21556;55.782;37.528;2023-04-28T07:50:11;99235.84;;;18.56;100.00
35435;BME280;21556;55.782;37.528;2023-04-28T07:52:43;99234.53;;;18.75;100.00
35435;BME280;21556;55.782;37.528;2023-04-28T07:55:10;99237.94;;;18.80;100.00
35435;BME280;21556;55.782;37.528;2023-04-28T07:57:37;99237.28;;;18.70;100.00
35435;BME280;21556;55.782;37.528;2023-04-28T08:00:03;99238.72;;;18.85;100.00
35435;BME280;21556;55.782;37.528;2023-04-28T08:02:56;99231.22;;;18.64;100.00
35435;BME280;21556;55.782;37.528;2023-04-28T08:05:42;99231.16;;;19.04;100.00
35435;BME280;21556;55.782;37.528;2023-04-28T08:08:11;99234.16;;;18.90;100.00
35435;BME280;21556;55.782;37.528;2023-04-28T08:10:37;99231.34;;;18.96;100.00
35435;BME280;21556;55.782;37.528;2023-04-28T08:13:22;99226.72;;;18.67;100.00
35435;BME280;21556;55.782;37.528;2023-04-28T08:15:51;99233.31;;;18.88;100.00
35435;BME280;21556;55.782;37.528;2023-04-28T08:18:18;99230.19;;;18.69;100.00
35435;BME280;21556;55.782;37.528;2023-04-28T08:20:47;99231.97;;;19.06;100.00
35435;BME280;21556;55.782;37.528;2023-04-28T08:23:14;99236.41;;;18.68;100.00
35435;BME280;21556;55.782;37.528;2023-04-28T08:25:45;99238.06;;;18.75;100.00
35435;BME280;21556;55.782;37.528;2023-04-28T08:28:29;99239.47;;;18.90;100.00
35435;BME280;21556;55.782;37.528;2023-04-28T08:31:06;99237.34;;;18.67;100.00
35435;BME280;21556;55.782;37.528;2023-04-28T08:34:06;99240.91;;;18.27;100.00
35435;BME280;21556;55.782;37.528;2023-04-28T08:36:35;99232.38;;;18.52;100.00
35435;BME280;21556;55.782;37.528;2023-04-28T08:39:02;99249.78;;;18.25;100.00
35435;BME280;21556;55.782;37.528;2023-04-28T08:41:36;99238.66;;;18.09;100.00
35435;BME280;21556;55.782;37.528;2023-04-28T08:44:16;99244.13;;;18.01;100.00
35435;BME280;21556;55.782;37.528;2023-04-28T08:47:13;99254.94;;;17.91;100.00
35435;BME280;21556;55.782;37.528;2023-04-28T08:49:44;99256.13;;;17.74;100.00
35435;BME280;21556;55.782;37.528;2023-04-28T08:52:16;99247.34;;;17.71;100.00
35435;BME280;21556;55.782;37.528;2023-04-28T08:54:48;99251.66;;;17.78;100.00
35435;BME280;21556;55.782;37.528;2023-04-28T08:57:51;99251.69;;;17.76;100.00
35435;BME280;21556;55.782;37.528;2023-04-28T09:00:19;99250.19;;;18.07;100.00
35435;BME280;21556;55.782;37.528;2023-04-28T09:02:47;99251.44;;;17.90;100.00
35435;BME280;21556;55.782;37.528;2023-04-28T09:05:13;99254.13;;;17.87;100.00
35435;BME280;21556;55.782;37.528;2023-04-28T09:07:50;99251.59;;;18.24;100.00
35435;BME280;21556;55.782;37.528;2023-04-28T09:10:22;99258.19;;;18.05;100.00
35435;BME280;21556;55.782;37.528;2023-04-28T09:12:54;99250.00;;;18.16;100.00
35435;BME280;21556;55.782;37.528;2023-04-28T09:15:38;99252.34;;;18.29;100.00
35435;BME280;21556;55.782;37.528;2023-04-28T09:18:13;99251.75;;;18.15;100.00
35435;BME280;21556;55.782;37.528;2023-04-28T09:21:08;99250.16;;;18.08;100.00
35435;BME280;21556;55.782;37.528;2023-04-28T09:24:00;99244.50;;;17.82;100.00
35435;BME280;21556;55.782;37.528;2023-04-28T09:26:51;99248.78;;;17.90;100.00
35435;BME280;21556;55.782;37.528;2023-04-28T09:29:19;99245.63;;;18.92;100.00
35435;BME280;21556;55.782;37.528;2023-04-28T09:31:49;99247.41;;;18.53;100.00
35435;BME280;21556;55.782;37.528;2023-04-28T09:34:18;99248.63;;;18.77;100.00
35435;BME280;21556;55.782;37.528;2023-04-28T09:36:48;99241.31;;;18.87;100.00
35435;BME280;21556;55.782;37.528;2023-04-28T09:39:29;99240.25;;;18.16;100.00
35435;BME280;21556;55.782;37.528;2023-04-28T09:41:57;99236.97;;;18.44;100.00
35435;BME280;21556;55.782;37.528;2023-04-28T09:44:32;99240.25;;;18.95;100.00
35435;BME280;21556;55.782;37.528;2023-04-28T09:46:59;99234.59;;;18.72;100.00
35435;BME280;21556;55.782;37.528;2023-04-28T09:49:27;99241.56;;;18.76;100.00
35435;BME280;21556;55.782;37.528;2023-04-28T09:52:11;99245.56;;;18.55;100.00
35435;BME280;21556;55.782;37.528;2023-04-28T09:54:37;99244.69;;;18.56;100.00
35435;BME280;21556;55.782;37.528;2023-04-28T09:57:06;99243.31;;;18.77;100.00
35435;BME280;21556;55.782;37.528;2023-04-28T09:59:34;99250.09;;;18.90;100.00
35435;BME280;21556;55.782;37.528;2023-04-28T10:02:00;99245.63;;;18.92;100.00
35435;BME280;21556;55.782;37.528;2023-04-28T10:04:27;99240.13;;;18.61;100.00
35435;BME280;21556;55.782;37.528;2023-04-28T10:07:01;99241.50;;;18.79;100.00
35435;BME280;21556;55.782;37.528;2023-04-28T10:09:29;99245.41;;;18.63;100.00
35435;BME280;21556;55.782;37.528;2023-04-28T10:11:56;99245.78;;;18.46;100.00
35435;BME280;21556;55.782;37.528;2023-04-28T10:14:25;99252.72;;;18.53;100.00
35435;BME280;21556;55.782;37.528;2023-04-28T10:16:55;99248.31;;;18.91;100.00
35435;BME280;21556;55.782;37.528;2023-04-28T10:19:23;99254.59;;;18.88;100.00
35435;BME280;21556;55.782;37.528;2023-04-28T10:27:33;99254.59;;;18.48;100.00
35435;BME280;21556;55.782;37.528;2023-04-28T10:30:28;99271.16;;;18.98;100.00
35435;BME280;21556;55.782;37.528;2023-04-28T10:38:20;99287.31;;;17.62;100.00
35435;BME280;21556;55.782;37.528;2023-04-28T10:40:52;99289.97;;;17.62;100.00
35435;BME280;21556;55.782;37.528;2023-04-28T10:56:15;99277.47;;;17.17;100.00
35435;BME280;21556;55.782;37.528;2023-04-28T10:58:48;99281.94;;;17.15;100.00
35435;BME280;21556;55.782;37.528;2023-04-28T11:01:26;99281.72;;;17.27;100.00
35435;BME280;21556;55.782;37.528;2023-04-28T11:04:08;99286.84;;;17.38;100.00
35435;BME280;21556;55.782;37.528;2023-04-28T11:06:45;99293.03;;;17.39;100.00
35435;BME280;21556;55.782;37.528;2023-04-28T11:11:38;99288.41;;;17.50;100.00
35435;BME280;21556;55.782;37.528;2023-04-28T11:16:51;99284.72;;;17.07;100.00
35435;BME280;21556;55.782;37.528;2023-04-28T11:19:24;99292.28;;;17.32;100.00
35435;BME280;21556;55.782;37.528;2023-04-28T11:22:22;99293.38;;;17.68;100.00
35435;BME280;21556;55.782;37.528;2023-04-28T11:30:21;99282.03;;;17.62;100.00
35435;BME280;21556;55.782;37.528;2023-04-28T11:32:49;99283.03;;;17.54;100.00
35435;BME280;21556;55.782;37.528;2023-04-28T11:35:52;99275.38;;;17.86;100.00
35435;BME280;21556;55.782;37.528;2023-04-28T11:38:42;99289.00;;;17.66;100.00
35435;BME280;21556;55.782;37.528;2023-04-28T11:41:44;99291.91;;;17.52;100.00
35435;BME280;21556;55.782;37.528;2023-04-28T11:44:41;99287.63;;;17.93;100.00
35435;BME280;21556;55.782;37.528;2023-04-28T11:47:38;99286.56;;;18.43;100.00
35435;BME280;21556;55.782;37.528;2023-04-28T11:50:08;99288.19;;;18.50;100.00
35435;BME280;21556;55.782;37.528;2023-04-28T11:52:35;99286.28;;;18.57;100.00
35435;BME280;21556;55.782;37.528;2023-04-28T11:55:06;99278.53;;;18.46;100.00
35435;BME280;21556;55.782;37.528;2023-04-28T11:57:35;99280.84;;;18.62;100.00
35435;BME280;21556;55.782;37.528;2023-04-28T12:00:18;99285.09;;;18.30;100.00
35435;BME280;21556;55.782;37.528;2023-04-28T12:02:49;99288.00;;;18.19;100.00
35435;BME280;21556;55.782;37.528;2023-04-28T12:05:56;99288.38;;;17.99;100.00
35435;BME280;21556;55.782;37.528;2023-04-28T12:08:27;99290.44;;;17.85;100.00
35435;BME280;21556;55.782;37.528;2023-04-28T12:11:12;99283.13;;;17.96;100.00
35435;BME280;21556;55.782;37.528;2023-04-28T12:13:39;99278.69;;;17.97;100.00
35435;BME280;21556;55.782;37.528;2023-04-28T12:16:07;99278.03;;;17.87;100.00
35435;BME280;21556;55.782;37.528;2023-04-28T12:18:36;99284.63;;;17.65;100.00
35435;BME280;21556;55.782;37.528;2023-04-28T12:21:19;99283.38;;;17.36;100.00
35435;BME280;21556;55.782;37.528;2023-04-28T12:23:52;99277.88;;;17.45;100.00
35435;BME280;21556;55.782;37.528;2023-04-28T12:26:26;99283.59;;;17.70;100.00
35435;BME280;21556;55.782;37.528;2023-04-28T12:28:58;99280.78;;;17.81;100.00
35435;BME280;21556;55.782;37.528;2023-04-28T12:31:26;99290.09;;;18.02;100.00
35435;BME280;21556;55.782;37.528;2023-04-28T12:33:56;99281.56;;;17.86;100.00
35435;BME280;21556;55.782;37.528;2023-04-28T12:36:42;99287.66;;;17.91;100.00
35435;BME280;21556;55.782;37.528;2023-04-28T12:39:18;99297.41;;;16.87;100.00
35435;BME280;21556;55.782;37.528;2023-04-28T12:41:49;99291.81;;;17.07;100.00
35435;BME280;21556;55.782;37.528;2023-04-28T12:44:21;99292.69;;;16.46;100.00
35435;BME280;21556;55.782;37.528;2023-04-28T12:46:50;99287.94;;;16.71;100.00
35435;BME280;21556;55.782;37.528;2023-04-28T12:49:28;99288.16;;;16.54;100.00
35435;BME280;21556;55.782;37.528;2023-04-28T12:51:56;99292.38;;;16.67;100.00
35435;BME280;21556;55.782;37.528;2023-04-28T12:54:25;99296.69;;;16.76;100.00
35435;BME280;21556;55.782;37.528;2023-04-28T12:56:56;99296.28;;;17.03;100.00
35435;BME280;21556;55.782;37.528;2023-04-28T12:59:30;99286.69;;;17.47;100.00
35435;BME280;21556;55.782;37.528;2023-04-28T13:02:07;99292.34;;;17.27;100.00
35435;BME280;21556;55.782;37.528;2023-04-28T13:04:37;99296.31;;;16.37;100.00
35435;BME280;21556;55.782;37.528;2023-04-28T13:07:32;99293.19;;;16.75;100.00
35435;BME280;21556;55.782;37.528;2023-04-28T13:10:27;99300.91;;;16.23;100.00
35435;BME280;21556;55.782;37.528;2023-04-28T13:13:02;99296.69;;;16.08;100.00
35435;BME280;21556;55.782;37.528;2023-04-28T13:15:37;99306.91;;;16.37;100.00
35435;BME280;21556;55.782;37.528;2023-04-28T13:18:08;99302.50;;;16.39;100.00
35435;BME280;21556;55.782;37.528;2023-04-28T13:20:46;99300.19;;;16.79;100.00
35435;BME280;21556;55.782;37.528;2023-04-28T13:23:15;99299.81;;;17.02;100.00
35435;BME280;21556;55.782;37.528;2023-04-28T13:25:43;99302.81;;;16.79;100.00
35435;BME280;21556;55.782;37.528;2023-04-28T13:28:15;99311.56;;;16.20;100.00
35435;BME280;21556;55.782;37.528;2023-04-28T13:30:50;99326.13;;;16.51;100.00
35435;BME280;21556;55.782;37.528;2023-04-28T13:33:21;99327.31;;;16.30;100.00
35435;BME280;21556;55.782;37.528;2023-04-28T13:35:47;99333.31;;;16.43;100.00
35435;BME280;21556;55.782;37.528;2023-04-28T13:38:13;99339.31;;;15.83;100.00
35435;BME280;21556;55.782;37.528;2023-04-28T13:40:39;99342.13;;;15.65;100.00